createdAt,value
2022-11-07T00:01:20.857Z,98102.28
2022-11-07T00:03:47.356Z,98096.16
2022-11-07T00:06:13.908Z,98098.78
2022-11-07T00:08:40.411Z,98099.66
2022-11-07T00:11:07.044Z,98131.34
2022-11-07T00:13:33.614Z,98142.81
2022-11-07T00:16:05.240Z,98134.00
2022-11-07T00:18:31.776Z,98142.75
2022-11-07T00:21:07.281Z,98144.53
2022-11-07T00:23:34.154Z,98134.00
2022-11-07T00:26:08.819Z,98156.84
2022-11-07T00:28:37.124Z,98156.84
2022-11-07T00:31:05.031Z,98165.69
2022-11-07T00:33:31.995Z,98160.34
2022-11-07T00:35:58.505Z,98148.00
2022-11-07T00:38:25.021Z,98155.91
2022-11-07T00:41:03.221Z,98139.19
2022-11-07T00:43:30.339Z,98159.41
2022-11-07T00:45:57.459Z,98164.66
2022-11-07T00:48:23.972Z,98149.66
2022-11-07T00:50:53.987Z,98159.34
2022-11-07T00:53:20.504Z,98172.59
2022-11-07T00:55:47.508Z,98185.78
2022-11-07T00:58:14.676Z,98200.72
2022-11-07T01:00:42.222Z,98206.88
2022-11-07T01:03:27.940Z,98211.28
2022-11-07T01:06:02.002Z,98208.63
2022-11-07T01:08:29.327Z,98220.06
2022-11-07T01:11:02.530Z,98213.91
2022-11-07T01:13:29.034Z,98219.19
2022-11-07T01:15:59.784Z,98218.28
2022-11-07T01:18:27.987Z,98231.50
2022-11-07T01:20:54.545Z,98221.78
2022-11-07T01:23:25.757Z,98222.63
2022-11-07T01:25:52.265Z,98216.47
2022-11-07T01:28:18.695Z,98204.13
2022-11-07T01:30:48.345Z,98204.16
2022-11-07T01:33:15.185Z,98204.13
2022-11-07T01:35:43.951Z,98200.63
2022-11-07T01:38:10.409Z,98197.97
2022-11-07T01:41:04.078Z,98192.69
2022-11-07T01:43:50.613Z,98210.25
2022-11-07T01:46:18.113Z,98202.38
2022-11-07T01:48:49.135Z,98212.06
2022-11-07T01:51:17.325Z,98215.56
2022-11-07T01:53:44.084Z,98214.69
2022-11-07T01:56:16.232Z,98210.25
2022-11-07T01:58:44.481Z,98191.75
2022-11-07T02:01:11.149Z,98193.56
2022-11-07T02:03:37.736Z,98207.63
2022-11-07T02:06:09.288Z,98206.75
2022-11-07T02:08:39.857Z,98193.50
2022-11-07T02:11:07.263Z,98190.84
2022-11-07T02:13:33.799Z,98200.59
2022-11-07T02:16:03.110Z,98211.16
2022-11-07T02:18:30.755Z,98203.19
2022-11-07T02:21:04.315Z,98198.84
2022-11-07T02:23:39.720Z,98206.78
2022-11-07T02:26:06.554Z,98194.47
2022-11-07T02:28:36.564Z,98190.94
2022-11-07T02:31:03.062Z,98194.47
2022-11-07T02:33:29.602Z,98190.94
2022-11-07T02:35:57.527Z,98201.47
2022-11-07T02:38:31.031Z,98194.44
2022-11-07T02:41:02.914Z,98206.75
2022-11-07T02:43:31.820Z,98201.47
2022-11-07T02:46:01.988Z,98212.03
2022-11-07T02:48:33.155Z,98212.94
2022-11-07T02:50:59.722Z,98205.00
2022-11-07T02:53:26.180Z,98204.13
2022-11-07T02:55:52.685Z,98204.13
2022-11-07T02:58:19.114Z,98212.94
2022-11-07T03:00:45.680Z,98208.56
2022-11-07T03:03:13.488Z,98213.84
2022-11-07T03:05:40.253Z,98204.06
2022-11-07T03:08:06.702Z,98223.44
2022-11-07T03:10:33.277Z,98216.38
2022-11-07T03:12:59.727Z,98208.41
2022-11-07T03:15:26.239Z,98213.69
2022-11-07T03:17:52.774Z,98220.69
2022-11-07T03:20:22.934Z,98214.50
2022-11-07T03:22:49.414Z,98212.72
2022-11-07T03:25:15.869Z,98226.78
2022-11-07T03:27:49.232Z,98223.19
2022-11-07T03:30:16.974Z,98232.00
2022-11-07T03:32:46.916Z,98224.97
2022-11-07T03:35:13.439Z,98231.13
2022-11-07T03:37:39.909Z,98220.56
2022-11-07T03:40:07.179Z,98226.72
2022-11-07T03:42:39.006Z,98238.19
2022-11-07T03:45:06.698Z,98231.97
2022-11-07T03:47:37.218Z,98234.59
2022-11-07T03:50:04.766Z,98238.97
2022-11-07T03:52:31.392Z,98238.97
2022-11-07T03:54:57.938Z,98230.19
2022-11-07T03:57:24.450Z,98236.31
2022-11-07T03:59:50.921Z,98235.41
2022-11-07T04:02:17.939Z,98244.25
2022-11-07T04:04:44.547Z,98237.19
2022-11-07T04:07:11.003Z,98246.00
2022-11-07T04:09:37.474Z,98254.81
2022-11-07T04:12:22.719Z,98254.81
2022-11-07T04:15:07.587Z,98248.63
2022-11-07T04:17:34.050Z,98235.41
2022-11-07T04:20:07.968Z,98231.91
2022-11-07T04:22:35.093Z,98248.63
2022-11-07T04:25:01.647Z,98255.66
2022-11-07T04:27:43.246Z,98246.00
2022-11-07T04:30:21.821Z,98253.06
2022-11-07T04:32:59.306Z,98261.00
2022-11-07T04:35:31.332Z,98245.13
2022-11-07T04:37:58.351Z,98245.13
2022-11-07T04:40:25.100Z,98246.88
2022-11-07T04:42:51.822Z,98247.78
2022-11-07T04:45:18.494Z,98246.00
2022-11-07T04:47:45.277Z,98246.00
2022-11-07T04:50:15.385Z,98246.00
2022-11-07T04:52:42.523Z,98245.13
2022-11-07T04:55:16.375Z,98254.81
2022-11-07T04:57:42.891Z,98259.22
2022-11-07T05:00:09.677Z,98265.44
2022-11-07T05:02:36.182Z,98270.72
2022-11-07T05:05:02.676Z,98272.50
2022-11-07T05:07:30.848Z,98277.75
2022-11-07T05:09:57.308Z,98287.41
2022-11-07T05:12:23.775Z,98282.09
2022-11-07T05:14:50.244Z,98279.44
2022-11-07T05:17:17.078Z,98286.47
2022-11-07T05:19:43.605Z,98282.06
2022-11-07T05:22:29.338Z,98279.44
2022-11-07T05:24:56.001Z,98278.56
2022-11-07T05:27:23.264Z,98282.06
2022-11-07T05:29:49.866Z,98270.63
2022-11-07T05:32:16.987Z,98262.66
2022-11-07T05:34:43.758Z,98277.63
2022-11-07T05:37:11.672Z,98264.38
2022-11-07T05:39:38.534Z,98266.13
2022-11-07T05:42:05.556Z,98263.47
2022-11-07T05:44:32.351Z,98273.16
2022-11-07T05:46:59.719Z,98270.56
2022-11-07T05:49:26.382Z,98265.28
2022-11-07T05:51:53.402Z,98276.72
2022-11-07T05:54:19.944Z,98278.50
2022-11-07T05:56:46.459Z,98293.50
2022-11-07T05:59:15.475Z,98288.22
2022-11-07T06:01:42.251Z,98281.13
2022-11-07T06:04:08.984Z,98285.53
2022-11-07T06:06:35.690Z,98274.94
2022-11-07T06:09:02.187Z,98274.03
2022-11-07T06:11:28.662Z,98295.19
2022-11-07T06:13:55.113Z,98288.13
2022-11-07T06:16:21.802Z,98300.47
2022-11-07T06:18:48.282Z,98292.56
2022-11-07T06:21:15.936Z,98299.63
2022-11-07T06:23:42.985Z,98296.09
2022-11-07T06:26:09.841Z,98308.47
2022-11-07T06:28:36.541Z,98297.91
2022-11-07T06:31:04.571Z,98297.94
2022-11-07T06:33:31.643Z,98303.25
2022-11-07T06:36:09.439Z,98312.91
2022-11-07T06:38:36.927Z,98297.03
2022-11-07T06:41:08.628Z,98306.75
2022-11-07T06:43:35.371Z,98307.63
2022-11-07T06:46:07.476Z,98314.66
2022-11-07T06:48:34.220Z,98308.50
2022-11-07T06:51:02.650Z,98299.69
2022-11-07T06:53:30.156Z,98322.59
2022-11-07T06:55:59.602Z,98329.63
2022-11-07T06:58:26.109Z,98337.59
2022-11-07T07:00:52.640Z,98339.34
2022-11-07T07:03:19.495Z,98334.06
2022-11-07T07:05:46.112Z,98346.38
2022-11-07T07:08:14.118Z,98341.06
2022-11-07T07:10:45.600Z,98344.56
2022-11-07T07:13:15.009Z,98354.25
2022-11-07T07:15:51.001Z,98359.50
2022-11-07T07:18:19.035Z,98355.94
2022-11-07T07:20:46.118Z,98348.84
2022-11-07T07:23:12.700Z,98356.72
2022-11-07T07:25:39.215Z,98357.53
2022-11-07T07:28:05.679Z,98353.13
2022-11-07T07:30:32.231Z,98356.63
2022-11-07T07:32:58.856Z,98360.13
2022-11-07T07:35:25.368Z,98356.56
2022-11-07T07:37:52.079Z,98349.50
2022-11-07T07:40:19.549Z,98355.69
2022-11-07T07:42:46.932Z,98357.44
2022-11-07T07:45:15.793Z,98360.94
2022-11-07T07:47:42.455Z,98346.75
2022-11-07T07:50:11.521Z,98353.75
2022-11-07T07:52:38.236Z,98343.16
2022-11-07T07:55:07.922Z,98345.75
2022-11-07T07:57:39.098Z,98345.72
2022-11-07T08:00:06.072Z,98336.88
2022-11-07T08:02:32.547Z,98334.13
2022-11-07T08:04:59.019Z,98334.97
2022-11-07T08:07:25.514Z,98337.56
2022-11-07T08:09:51.967Z,98345.44
2022-11-07T08:12:18.451Z,98340.97
2022-11-07T08:14:44.904Z,98356.81
2022-11-07T08:17:11.380Z,98345.31
2022-11-07T08:19:37.852Z,98348.81
2022-11-07T08:22:04.327Z,98351.41
2022-11-07T08:24:31.269Z,98348.69
2022-11-07T08:26:58.071Z,98351.31
2022-11-07T08:29:24.592Z,98341.59
2022-11-07T08:31:51.117Z,98346.94
2022-11-07T08:34:18.569Z,98338.13
2022-11-07T08:36:45.130Z,98343.44
2022-11-07T08:39:11.697Z,98346.06
2022-11-07T08:41:38.197Z,98345.13
2022-11-07T08:44:04.859Z,98344.13
2022-11-07T08:46:31.327Z,98325.31
2022-11-07T08:48:57.799Z,98343.75
2022-11-07T08:51:24.231Z,98344.66
2022-11-07T08:53:50.725Z,98346.22
2022-11-07T08:56:17.197Z,98347.75
2022-11-07T08:58:44.589Z,98338.75
2022-11-07T09:01:11.348Z,98353.84
2022-11-07T09:03:52.915Z,98340.47
2022-11-07T09:06:23.731Z,98354.41
2022-11-07T09:08:50.259Z,98343.94
2022-11-07T09:11:18.918Z,98317.38
2022-11-07T09:13:47.105Z,98348.34
2022-11-07T09:16:17.374Z,98350.97
2022-11-07T09:18:44.842Z,98341.34
2022-11-07T09:21:11.453Z,98351.13
2022-11-07T09:23:37.941Z,98342.25
2022-11-07T09:26:04.794Z,98346.59
2022-11-07T09:28:31.700Z,98341.13
2022-11-07T09:30:59.524Z,98357.06
2022-11-07T09:33:27.023Z,98347.31
2022-11-07T09:35:53.738Z,98351.59
2022-11-07T09:38:20.732Z,98358.44
2022-11-07T09:41:07.181Z,98352.00
2022-11-07T09:43:51.364Z,98353.63
2022-11-07T09:46:38.338Z,98346.69
2022-11-07T09:49:15.931Z,98361.03
2022-11-07T09:52:05.099Z,98339.94
2022-11-07T09:54:37.882Z,98357.69
2022-11-07T09:57:04.624Z,98356.78
2022-11-07T09:59:42.656Z,98338.22
2022-11-07T10:02:15.762Z,98343.47
2022-11-07T10:04:43.606Z,98352.19
2022-11-07T10:07:35.907Z,98354.78
2022-11-07T10:10:02.219Z,98342.25
2022-11-07T10:12:45.122Z,98348.44
2022-11-07T10:15:23.998Z,98348.44
2022-11-07T10:18:28.064Z,98351.03
2022-11-07T10:21:37.142Z,98352.81
2022-11-07T10:24:14.433Z,98368.00
2022-11-07T10:26:44.419Z,98360.06
2022-11-07T10:29:19.744Z,98360.03
2022-11-07T10:31:54.649Z,98368.00
2022-11-07T10:34:28.982Z,98370.63
2022-11-07T10:36:55.528Z,98369.69
2022-11-07T10:39:22.093Z,98389.19
2022-11-07T10:42:18.522Z,98377.59
2022-11-07T10:44:45.287Z,98386.38
2022-11-07T10:47:17.610Z,98382.78
2022-11-07T10:49:56.280Z,98387.16
2022-11-07T10:52:23.568Z,98381.53
2022-11-07T10:54:52.162Z,98369.84
2022-11-07T10:57:20.952Z,98357.34
2022-11-07T10:59:53.511Z,98381.06
2022-11-07T11:02:29.350Z,98377.47
2022-11-07T11:05:05.031Z,98362.41
2022-11-07T11:07:37.896Z,98371.28
2022-11-07T11:10:19.222Z,98374.78
2022-11-07T11:12:47.195Z,98368.47
2022-11-07T11:15:20.144Z,98367.97
2022-11-07T11:17:47.942Z,98369.25
2022-11-07T11:20:28.477Z,98359.03
2022-11-07T11:22:55.203Z,98368.69
2022-11-07T11:25:23.806Z,98377.09
2022-11-07T11:28:05.039Z,98368.91
2022-11-07T11:30:35.681Z,98370.56
2022-11-07T11:33:11.846Z,98376.75
2022-11-07T11:35:52.214Z,98371.84
2022-11-07T11:38:28.338Z,98385.22
2022-11-07T11:41:04.776Z,98380.03
2022-11-07T11:44:07.019Z,98379.97
2022-11-07T11:46:41.160Z,98376.19
2022-11-07T11:49:20.643Z,98374.75
2022-11-07T11:52:01.498Z,98355.50
2022-11-07T11:54:28.268Z,98380.47
2022-11-07T11:57:17.006Z,98382.28
2022-11-07T12:00:05.238Z,98398.22
2022-11-07T12:02:53.206Z,98390.31
2022-11-07T12:05:41.464Z,98396.66
2022-11-07T12:08:17.425Z,98383.41
2022-11-07T12:11:20.404Z,98403.00
2022-11-07T12:14:01.051Z,98393.22
2022-11-07T12:16:56.023Z,98394.16
2022-11-07T12:20:14.921Z,98388.84
2022-11-07T12:22:49.942Z,98399.34
2022-11-07T12:25:43.774Z,98391.28
2022-11-07T12:28:28.720Z,98394.81
2022-11-07T12:31:31.482Z,98386.84
2022-11-07T12:34:07.883Z,98384.69
2022-11-07T12:37:00.391Z,98389.81
2022-11-07T12:39:27.725Z,98388.72
2022-11-07T12:41:58.490Z,98386.31
2022-11-07T12:44:40.087Z,98401.72
2022-11-07T12:47:38.783Z,98393.13
2022-11-07T12:50:29.554Z,98403.94
2022-11-07T12:53:14.322Z,98392.56
2022-11-07T12:55:44.972Z,98397.91
2022-11-07T12:58:23.305Z,98401.41
2022-11-07T13:00:51.689Z,98396.00
2022-11-07T13:03:33.465Z,98389.75
2022-11-07T13:06:26.335Z,98392.38
2022-11-07T13:09:02.750Z,98390.56
2022-11-07T13:11:37.816Z,98397.59
2022-11-07T13:14:23.689Z,98401.16
2022-11-07T13:17:03.457Z,98387.97
2022-11-07T13:19:37.096Z,98396.91
2022-11-07T13:22:19.988Z,98389.88
2022-11-07T13:25:16.986Z,98397.88
2022-11-07T13:27:47.985Z,98393.41
2022-11-07T13:30:17.071Z,98403.06
2022-11-07T13:32:51.397Z,98410.13
2022-11-07T13:35:25.672Z,98408.34
2022-11-07T13:38:12.344Z,98410.94
2022-11-07T13:40:44.641Z,98415.22
2022-11-07T13:43:16.268Z,98403.69
2022-11-07T13:45:49.919Z,98411.88
2022-11-07T13:48:30.979Z,98403.13
2022-11-07T13:51:01.125Z,98413.81
2022-11-07T13:53:34.195Z,98420.09
2022-11-07T13:56:14.017Z,98420.16
2022-11-07T13:58:41.777Z,98416.69
2022-11-07T14:01:13.226Z,98422.00
2022-11-07T14:03:39.794Z,98426.47
2022-11-07T14:06:06.897Z,98419.47
2022-11-07T14:08:37.518Z,98417.00
2022-11-07T14:11:13.230Z,98421.47
2022-11-07T14:13:41.767Z,98425.03
2022-11-07T14:16:16.235Z,98427.78
2022-11-07T14:18:48.344Z,98427.00
2022-11-07T14:21:20.235Z,98422.63
2022-11-07T14:23:49.744Z,98427.09
2022-11-07T14:26:23.232Z,98433.31
2022-11-07T14:28:50.644Z,98425.41
2022-11-07T14:31:24.757Z,98421.91
2022-11-07T14:33:54.303Z,98416.66
2022-11-07T14:36:21.705Z,98421.19
2022-11-07T14:38:50.698Z,98413.25
2022-11-07T14:41:18.487Z,98410.59
2022-11-07T14:43:45.867Z,98411.50
2022-11-07T14:46:19.320Z,98409.78
2022-11-07T14:48:47.714Z,98415.06
2022-11-07T14:51:17.578Z,98412.44
2022-11-07T14:54:04.395Z,98413.41
2022-11-07T14:56:38.128Z,98411.63
2022-11-07T14:59:11.510Z,98404.56
2022-11-07T15:01:38.442Z,98394.84
2022-11-07T15:04:27.869Z,98401.91
2022-11-07T15:06:54.367Z,98398.44
2022-11-07T15:09:32.586Z,98401.09
2022-11-07T15:12:00.912Z,98409.00
2022-11-07T15:14:35.903Z,98408.09
2022-11-07T15:17:06.491Z,98418.78
2022-11-07T15:19:35.523Z,98416.13
2022-11-07T15:22:04.683Z,98418.78
2022-11-07T15:24:42.075Z,98428.53
2022-11-07T15:27:14.384Z,98421.50
2022-11-07T15:29:53.873Z,98439.09
2022-11-07T15:32:22.463Z,98417.88
2022-11-07T15:35:08.027Z,98432.91
2022-11-07T15:37:37.807Z,98435.53
2022-11-07T15:40:15.161Z,98435.53
2022-11-07T15:42:41.668Z,98408.94
2022-11-07T15:45:08.763Z,98437.19
2022-11-07T15:47:35.304Z,98434.53
2022-11-07T15:50:02.100Z,98440.75
2022-11-07T15:52:28.622Z,98435.53
2022-11-07T15:54:55.070Z,98442.59
2022-11-07T15:57:21.565Z,98444.34
2022-11-07T15:59:48.070Z,98446.16
2022-11-07T16:02:16.706Z,98454.16
2022-11-07T16:04:43.881Z,98447.06
2022-11-07T16:07:19.937Z,98441.78
2022-11-07T16:09:48.517Z,98440.94
2022-11-07T16:12:18.024Z,98448.88
2022-11-07T16:14:45.035Z,98437.38
2022-11-07T16:17:14.730Z,98447.03
2022-11-07T16:19:41.345Z,98432.88
2022-11-07T16:22:13.198Z,98449.56
2022-11-07T16:24:39.700Z,98445.13
2022-11-07T16:27:06.632Z,98454.91
2022-11-07T16:29:33.172Z,98446.09
2022-11-07T16:31:59.625Z,98460.19
2022-11-07T16:34:26.101Z,98455.78
2022-11-07T16:36:52.548Z,98452.31
2022-11-07T16:39:21.911Z,98452.31
2022-11-07T16:41:50.234Z,98454.09
2022-11-07T16:44:21.575Z,98456.78
2022-11-07T16:46:51.303Z,98463.88
2022-11-07T16:49:24.766Z,98464.75
2022-11-07T16:51:51.237Z,98470.06
2022-11-07T16:54:17.978Z,98467.41
2022-11-07T16:56:48.407Z,98472.59
2022-11-07T16:59:23.764Z,98477.84
2022-11-07T17:01:51.252Z,98469.88
2022-11-07T17:04:17.974Z,98468.09
2022-11-07T17:06:47.623Z,98462.81
2022-11-07T17:09:24.642Z,98445.97
2022-11-07T17:11:51.207Z,98459.25
2022-11-07T17:14:20.760Z,98466.31
2022-11-07T17:16:48.468Z,98463.66
2022-11-07T17:19:15.535Z,98463.66
2022-11-07T17:21:46.405Z,98471.69
2022-11-07T17:24:13.668Z,98470.81
2022-11-07T17:26:40.381Z,98472.53
2022-11-07T17:29:11.938Z,98472.53
2022-11-07T17:31:38.635Z,98468.94
2022-11-07T17:34:05.721Z,98475.97
2022-11-07T17:36:38.467Z,98475.09
2022-11-07T17:39:12.053Z,98480.50
2022-11-07T17:41:40.192Z,98486.72
2022-11-07T17:44:07.075Z,98484.06
2022-11-07T17:46:34.896Z,98483.22
2022-11-07T17:49:09.654Z,98483.28
2022-11-07T17:51:36.330Z,98478.03
2022-11-07T17:54:04.399Z,98485.03
2022-11-07T17:56:32.841Z,98486.75
2022-11-07T17:59:03.188Z,98495.63
2022-11-07T18:01:35.734Z,98483.28
2022-11-07T18:04:03.610Z,98490.31
2022-11-07T18:06:30.169Z,98500.88
2022-11-07T18:08:58.365Z,98498.28
2022-11-07T18:11:28.258Z,98492.97
2022-11-07T18:13:56.162Z,98492.94
2022-11-07T18:16:28.604Z,98493.88
2022-11-07T18:18:56.670Z,98496.53
2022-11-07T18:21:23.286Z,98500.16
2022-11-07T18:23:49.748Z,98497.50
2022-11-07T18:26:25.081Z,98491.31
2022-11-07T18:28:53.533Z,98501.00
2022-11-07T18:31:22.178Z,98507.25
2022-11-07T18:33:48.864Z,98506.34
2022-11-07T18:36:18.160Z,98501.91
2022-11-07T18:38:44.765Z,98513.44
2022-11-07T18:41:14.198Z,98497.59
2022-11-07T18:43:40.865Z,98508.28
2022-11-07T18:46:09.504Z,98510.03
2022-11-07T18:48:37.871Z,98516.22
2022-11-07T18:51:11.776Z,98514.47
2022-11-07T18:53:38.832Z,98502.03
2022-11-07T18:56:07.445Z,98519.69
2022-11-07T18:58:36.438Z,98507.28
2022-11-07T19:01:08.914Z,98509.00
2022-11-07T19:03:36.399Z,98512.53
2022-11-07T19:06:07.879Z,98510.72
2022-11-07T19:08:37.612Z,98503.66
2022-11-07T19:11:07.024Z,98514.28
2022-11-07T19:13:38.265Z,98509.81
2022-11-07T19:16:06.359Z,98512.47
2022-11-07T19:18:33.166Z,98515.09
2022-11-07T19:20:59.962Z,98509.75
2022-11-07T19:23:27.201Z,98512.34
2022-11-07T19:25:54.369Z,98516.75
2022-11-07T19:28:20.922Z,98514.13
2022-11-07T19:30:47.459Z,98500.91
2022-11-07T19:33:16.027Z,98502.75
2022-11-07T19:35:43.085Z,98506.19
2022-11-07T19:38:12.042Z,98508.78
2022-11-07T19:40:38.956Z,98512.31
2022-11-07T19:43:05.627Z,98511.44
2022-11-07T19:45:32.198Z,98506.16
2022-11-07T19:47:58.801Z,98508.78
2022-11-07T19:50:25.372Z,98511.44
2022-11-07T19:52:51.927Z,98500.75
2022-11-07T19:55:18.542Z,98506.06
2022-11-07T19:57:45.050Z,98506.91
2022-11-07T20:00:12.812Z,98508.72
2022-11-07T20:02:44.394Z,98518.44
2022-11-07T20:05:11.692Z,98510.50
2022-11-07T20:07:39.146Z,98507.00
2022-11-07T20:10:08.587Z,98514.97
2022-11-07T20:12:35.121Z,98526.50
2022-11-07T20:15:01.653Z,98511.44
2022-11-07T20:17:28.199Z,98526.53
2022-11-07T20:19:54.711Z,98519.56
2022-11-07T20:22:21.182Z,98506.31
2022-11-07T20:24:47.678Z,98531.09
2022-11-07T20:27:14.620Z,98523.16
2022-11-07T20:29:41.155Z,98531.06
2022-11-07T20:32:07.775Z,98531.03
2022-11-07T20:34:34.273Z,98531.09
2022-11-07T20:37:00.845Z,98538.06
2022-11-07T20:39:27.368Z,98545.16
2022-11-07T20:41:53.979Z,98536.34
2022-11-07T20:44:22.795Z,98531.94
2022-11-07T20:46:50.086Z,98523.97
2022-11-07T20:49:17.899Z,98528.41
2022-11-07T20:51:45.054Z,98523.94
2022-11-07T20:54:13.784Z,98517.72
2022-11-07T20:56:41.806Z,98521.25
2022-11-07T20:59:09.625Z,98523.06
2022-11-07T21:01:37.419Z,98520.44
2022-11-07T21:04:09.721Z,98523.09
2022-11-07T21:06:36.139Z,98514.28
2022-11-07T21:09:03.005Z,98514.16
2022-11-07T21:11:30.621Z,98507.91
2022-11-07T21:13:57.544Z,98510.59
2022-11-07T21:16:25.398Z,98507.03
2022-11-07T21:18:53.381Z,98512.31
2022-11-07T21:21:23.267Z,98501.69
2022-11-07T21:23:50.522Z,98503.41
2022-11-07T21:26:33.382Z,98511.38
2022-11-07T21:29:01.205Z,98513.13
2022-11-07T21:31:30.579Z,98514.94
2022-11-07T21:33:57.820Z,98509.66
2022-11-07T21:36:29.482Z,98512.31
2022-11-07T21:38:57.592Z,98518.53
2022-11-07T21:41:25.030Z,98522.03
2022-11-07T21:43:51.700Z,98516.72
2022-11-07T21:46:30.623Z,98497.31
2022-11-07T21:48:58.390Z,98499.97
2022-11-07T21:51:30.470Z,98503.50
2022-11-07T21:53:58.348Z,98511.44
2022-11-07T21:56:27.249Z,98502.59
2022-11-07T21:59:05.138Z,98507.06
2022-11-07T22:01:35.407Z,98500.88
2022-11-07T22:04:08.900Z,98512.38
2022-11-07T22:06:38.705Z,98508.84
2022-11-07T22:09:07.572Z,98508.91
2022-11-07T22:11:34.275Z,98514.16
2022-11-07T22:14:00.743Z,98507.94
2022-11-07T22:16:27.495Z,98507.06
2022-11-07T22:18:54.195Z,98510.69
2022-11-07T22:21:22.856Z,98513.41
2022-11-07T22:23:49.861Z,98509.84
2022-11-07T22:26:22.210Z,98502.78
2022-11-07T22:28:49.395Z,98503.66
2022-11-07T22:31:18.700Z,98499.25
2022-11-07T22:33:45.219Z,98494.78
2022-11-07T22:36:12.380Z,98491.22
2022-11-07T22:38:39.680Z,98494.69
2022-11-07T22:41:08.613Z,98493.00
2022-11-07T22:43:35.396Z,98485.06
2022-11-07T22:46:03.261Z,98502.72
2022-11-07T22:48:29.857Z,98507.16
2022-11-07T22:51:13.032Z,98504.50
2022-11-07T22:53:39.835Z,98511.59
2022-11-07T22:56:19.514Z,98505.41
2022-11-07T22:58:47.214Z,98500.97
2022-11-07T23:01:23.233Z,98501.00
2022-11-07T23:03:50.896Z,98499.25
2022-11-07T23:06:18.366Z,98510.69
2022-11-07T23:08:45.136Z,98513.34
2022-11-07T23:14:06.789Z,98515.16
2022-11-07T23:16:38.849Z,98508.94
2022-11-07T23:19:07.013Z,98515.19
2022-11-07T23:21:33.670Z,98513.44
2022-11-07T23:24:00.593Z,98509.03
2022-11-07T23:26:33.839Z,98519.63
2022-11-07T23:29:10.805Z,98516.06
2022-11-07T23:31:43.180Z,98517.00
2022-11-07T23:34:09.799Z,98508.97
2022-11-07T23:36:39.964Z,98512.50
2022-11-07T23:39:08.689Z,98501.00
2022-11-07T23:41:35.521Z,98509.88
2022-11-07T23:44:02.737Z,98518.78
2022-11-07T23:46:48.277Z,98512.59
2022-11-07T23:49:33.093Z,98524.03
2022-11-07T23:51:59.608Z,98504.66
2022-11-07T23:54:44.717Z,98516.09
2022-11-07T23:57:11.274Z,98515.22
2022-11-07T23:59:57.717Z,98520.56
